sensor_id;sensor_type;location;lat;lon;timestamp;pressure;altitude;pressure_sealevel;temperature;humidity
21096;BME280;10706;49.036;12.112;2024-01-07T00:02:06;96913.66;;;5.75;82.18
21096;BME280;10706;49.036;12.112;2024-01-07T00:04:33;96916.25;;;5.94;81.35
21096;BME280;10706;49.036;12.112;2024-01-07T00:07:00;96916.66;;;6.09;82.92
21096;BME280;10706;49.036;12.112;2024-01-07T00:09:26;96911.38;;;6.09;80.47
21096;BME280;10706;49.036;12.112;2024-01-07T00:11:52;96921.13;;;5.97;81.03
21096;BME280;10706;49.036;12.112;2024-01-07T00:14:17;96916.84;;;5.96;80.59
21096;BME280;10706;49.036;12.112;2024-01-07T00:16:43;96920.78;;;5.75;81.04
21096;BME280;10706;49.036;12.112;2024-01-07T00:19:09;96907.50;;;5.93;80.30
21096;BME280;10706;49.036;12.112;2024-01-07T00:21:35;96921.63;;;5.57;81.54
21096;BME280;10706;49.036;12.112;2024-01-07T00:24:00;96916.66;;;5.12;82.60
21096;BME280;10706;49.036;12.112;2024-01-07T00:26:26;96920.84;;;5.38;82.93
21096;BME280;10706;49.036;12.112;2024-01-07T00:28:52;96920.03;;;5.37;82.69
21096;BME280;10706;49.036;12.112;2024-01-07T00:31:17;96916.13;;;5.21;83.30
21096;BME280;10706;49.036;12.112;2024-01-07T00:33:43;96919.72;;;5.64;82.04
21096;BME280;10706;49.036;12.112;2024-01-07T00:36:09;96926.72;;;5.58;82.04
21096;BME280;10706;49.036;12.112;2024-01-07T00:38:35;96912.94;;;5.68;81.79
21096;BME280;10706;49.036;12.112;2024-01-07T00:41:01;96913.72;;;5.20;82.30
21096;BME280;10706;49.036;12.112;2024-01-07T00:43:26;96918.94;;;5.75;80.98
21096;BME280;10706;49.036;12.112;2024-01-07T00:45:52;96918.28;;;5.13;82.46
21096;BME280;10706;49.036;12.112;2024-01-07T00:48:18;96917.19;;;5.69;81.80
21096;BME280;10706;49.036;12.112;2024-01-07T00:50:44;96920.59;;;5.58;82.01
21096;BME280;10706;49.036;12.112;2024-01-07T00:53:10;96917.88;;;5.46;82.02
21096;BME280;10706;49.036;12.112;2024-01-07T00:55:36;96922.00;;;5.42;82.45
21096;BME280;10706;49.036;12.112;2024-01-07T00:58:02;96926.50;;;5.41;81.61
21096;BME280;10706;49.036;12.112;2024-01-07T01:00:28;96927.78;;;5.69;80.98
21096;BME280;10706;49.036;12.112;2024-01-07T01:02:55;96932.75;;;5.29;82.13
21096;BME280;10706;49.036;12.112;2024-01-07T01:05:21;96933.34;;;5.49;82.10
21096;BME280;10706;49.036;12.112;2024-01-07T01:07:46;96936.59;;;5.63;81.77
21096;BME280;10706;49.036;12.112;2024-01-07T01:10:12;96939.91;;;5.47;81.01
21096;BME280;10706;49.036;12.112;2024-01-07T01:12:40;96934.75;;;5.15;83.05
21096;BME280;10706;49.036;12.112;2024-01-07T01:15:06;96944.69;;;4.76;85.20
21096;BME280;10706;49.036;12.112;2024-01-07T01:17:32;96939.94;;;4.59;86.66
21096;BME280;10706;49.036;12.112;2024-01-07T01:19:57;96938.22;;;4.72;86.31
21096;BME280;10706;49.036;12.112;2024-01-07T01:22:23;96941.84;;;4.77;85.68
21096;BME280;10706;49.036;12.112;2024-01-07T01:24:49;96941.47;;;4.48;87.00
21096;BME280;10706;49.036;12.112;2024-01-07T01:27:16;96944.47;;;4.77;86.53
21096;BME280;10706;49.036;12.112;2024-01-07T01:29:42;96953.13;;;4.66;86.18
21096;BME280;10706;49.036;12.112;2024-01-07T01:32:08;96944.94;;;4.49;87.49
21096;BME280;10706;49.036;12.112;2024-01-07T01:34:33;96952.69;;;4.44;87.99
21096;BME280;10706;49.036;12.112;2024-01-07T01:36:59;96949.81;;;4.71;86.77
21096;BME280;10706;49.036;12.112;2024-01-07T01:39:25;96948.72;;;4.60;86.49
21096;BME280;10706;49.036;12.112;2024-01-07T01:41:50;96950.69;;;4.64;87.12
21096;BME280;10706;49.036;12.112;2024-01-07T01:44:16;96949.69;;;4.84;86.60
21096;BME280;10706;49.036;12.112;2024-01-07T01:46:45;96947.19;;;4.71;86.53
21096;BME280;10706;49.036;12.112;2024-01-07T01:49:12;96955.69;;;4.73;87.95
21096;BME280;10706;49.036;12.112;2024-01-07T01:51:38;96948.69;;;4.85;86.63
21096;BME280;10706;49.036;12.112;2024-01-07T01:54:04;96947.25;;;4.64;86.90
21096;BME280;10706;49.036;12.112;2024-01-07T01:56:31;96943.22;;;4.80;87.37
21096;BME280;10706;49.036;12.112;2024-01-07T01:58:59;96942.75;;;4.64;88.22
21096;BME280;10706;49.036;12.112;2024-01-07T02:01:25;96947.28;;;4.57;87.22
21096;BME280;10706;49.036;12.112;2024-01-07T02:03:51;96947.84;;;4.66;86.75
21096;BME280;10706;49.036;12.112;2024-01-07T02:06:21;96954.69;;;4.74;87.26
21096;BME280;10706;49.036;12.112;2024-01-07T02:08:47;96947.75;;;4.73;86.87
21096;BME280;10706;49.036;12.112;2024-01-07T02:11:19;96953.34;;;4.64;86.75
21096;BME280;10706;49.036;12.112;2024-01-07T02:13:45;96950.63;;;4.46;88.71
21096;BME280;10706;49.036;12.112;2024-01-07T02:16:11;96954.63;;;4.55;86.74
21096;BME280;10706;49.036;12.112;2024-01-07T02:18:42;96951.34;;;4.60;86.73
21096;BME280;10706;49.036;12.112;2024-01-07T02:21:13;96951.03;;;4.50;87.59
21096;BME280;10706;49.036;12.112;2024-01-07T02:23:39;96954.34;;;4.38;88.34
21096;BME280;10706;49.036;12.112;2024-01-07T02:26:05;96954.91;;;4.72;86.84
21096;BME280;10706;49.036;12.112;2024-01-07T02:28:33;96957.28;;;4.30;87.82
21096;BME280;10706;49.036;12.112;2024-01-07T02:30:59;96962.16;;;4.58;87.10
21096;BME280;10706;49.036;12.112;2024-01-07T02:33:25;96962.25;;;4.45;88.59
21096;BME280;10706;49.036;12.112;2024-01-07T02:35:50;96962.84;;;4.47;87.91
21096;BME280;10706;49.036;12.112;2024-01-07T02:38:16;96966.91;;;4.43;88.86
21096;BME280;10706;49.036;12.112;2024-01-07T02:40:42;96963.75;;;4.34;88.42
21096;BME280;10706;49.036;12.112;2024-01-07T02:43:08;96962.78;;;4.54;88.87
21096;BME280;10706;49.036;12.112;2024-01-07T02:45:34;96960.59;;;4.51;88.15
21096;BME280;10706;49.036;12.112;2024-01-07T02:48:00;96964.13;;;4.38;89.55
21096;BME280;10706;49.036;12.112;2024-01-07T02:50:26;96962.72;;;4.35;88.33
21096;BME280;10706;49.036;12.112;2024-01-07T02:52:51;96967.78;;;4.37;89.07
21096;BME280;10706;49.036;12.112;2024-01-07T02:55:17;96961.56;;;4.56;87.86
21096;BME280;10706;49.036;12.112;2024-01-07T02:57:43;96966.53;;;4.71;86.95
21096;BME280;10706;49.036;12.112;2024-01-07T03:00:09;96966.97;;;4.86;85.86
21096;BME280;10706;49.036;12.112;2024-01-07T03:02:36;96971.56;;;4.73;85.28
21096;BME280;10706;49.036;12.112;2024-01-07T03:05:02;96963.41;;;4.74;86.67
21096;BME280;10706;49.036;12.112;2024-01-07T03:07:28;96967.94;;;4.67;85.57
21096;BME280;10706;49.036;12.112;2024-01-07T03:09:54;96964.72;;;4.65;86.42
21096;BME280;10706;49.036;12.112;2024-01-07T03:12:20;96962.75;;;5.04;85.09
21096;BME280;10706;49.036;12.112;2024-01-07T03:14:45;96960.47;;;5.26;83.13
21096;BME280;10706;49.036;12.112;2024-01-07T03:17:11;96968.13;;;5.34;83.13
21096;BME280;10706;49.036;12.112;2024-01-07T03:19:38;96967.44;;;5.02;83.11
21096;BME280;10706;49.036;12.112;2024-01-07T03:22:04;96965.63;;;5.21;81.90
21096;BME280;10706;49.036;12.112;2024-01-07T03:24:32;96976.03;;;5.16;82.54
21096;BME280;10706;49.036;12.112;2024-01-07T03:26:58;96968.16;;;4.91;83.08
21096;BME280;10706;49.036;12.112;2024-01-07T03:29:24;96973.28;;;5.11;83.20
21096;BME280;10706;49.036;12.112;2024-01-07T03:31:49;96973.16;;;4.99;82.81
21096;BME280;10706;49.036;12.112;2024-01-07T03:34:17;96973.78;;;5.38;81.67
21096;BME280;10706;49.036;12.112;2024-01-07T03:36:42;96979.75;;;5.15;82.11
21096;BME280;10706;49.036;12.112;2024-01-07T03:39:08;96983.72;;;5.24;81.71
21096;BME280;10706;49.036;12.112;2024-01-07T03:41:34;96982.03;;;4.86;82.44
21096;BME280;10706;49.036;12.112;2024-01-07T03:43:59;96981.28;;;4.79;83.05
21096;BME280;10706;49.036;12.112;2024-01-07T03:46:25;96976.50;;;5.13;82.58
21096;BME280;10706;49.036;12.112;2024-01-07T03:48:51;96980.41;;;5.29;81.81
21096;BME280;10706;49.036;12.112;2024-01-07T03:51:17;96990.75;;;5.12;81.43
21096;BME280;10706;49.036;12.112;2024-01-07T03:53:43;96992.00;;;4.84;83.31
21096;BME280;10706;49.036;12.112;2024-01-07T03:56:09;96994.53;;;4.97;83.24
21096;BME280;10706;49.036;12.112;2024-01-07T03:58:34;96996.72;;;4.82;82.03
21096;BME280;10706;49.036;12.112;2024-01-07T04:01:00;97005.88;;;4.54;84.15
21096;BME280;10706;49.036;12.112;2024-01-07T04:03:27;97005.03;;;4.60;82.24
21096;BME280;10706;49.036;12.112;2024-01-07T04:05:53;97001.25;;;4.50;82.67
21096;BME280;10706;49.036;12.112;2024-01-07T04:08:18;97006.41;;;4.38;84.19
21096;BME280;10706;49.036;12.112;2024-01-07T04:10:45;97009.19;;;4.43;83.31
21096;BME280;10706;49.036;12.112;2024-01-07T04:13:11;97014.84;;;4.78;81.92
21096;BME280;10706;49.036;12.112;2024-01-07T04:15:37;97014.44;;;4.56;82.33
21096;BME280;10706;49.036;12.112;2024-01-07T04:18:03;97015.34;;;4.68;80.95
21096;BME280;10706;49.036;12.112;2024-01-07T04:20:30;97013.97;;;4.59;81.55
21096;BME280;10706;49.036;12.112;2024-01-07T04:22:56;97018.16;;;4.42;83.72
21096;BME280;10706;49.036;12.112;2024-01-07T04:25:25;97021.00;;;4.08;84.05
21096;BME280;10706;49.036;12.112;2024-01-07T04:27:51;97027.34;;;4.39;82.50
21096;BME280;10706;49.036;12.112;2024-01-07T04:30:17;97017.91;;;4.50;81.18
21096;BME280;10706;49.036;12.112;2024-01-07T04:32:43;97025.41;;;4.21;82.40
21096;BME280;10706;49.036;12.112;2024-01-07T04:35:09;97027.56;;;4.38;80.44
21096;BME280;10706;49.036;12.112;2024-01-07T04:37:37;97032.16;;;4.49;80.56
21096;BME280;10706;49.036;12.112;2024-01-07T04:40:03;97025.00;;;4.56;79.50
21096;BME280;10706;49.036;12.112;2024-01-07T04:42:30;97040.03;;;4.24;81.00
21096;BME280;10706;49.036;12.112;2024-01-07T04:44:55;97040.59;;;4.33;81.12
21096;BME280;10706;49.036;12.112;2024-01-07T04:47:30;97042.28;;;4.52;79.63
21096;BME280;10706;49.036;12.112;2024-01-07T04:49:57;97035.72;;;4.61;79.85
21096;BME280;10706;49.036;12.112;2024-01-07T04:52:23;97049.78;;;4.62;80.80
21096;BME280;10706;49.036;12.112;2024-01-07T04:54:56;97049.22;;;4.53;81.11
21096;BME280;10706;49.036;12.112;2024-01-07T04:57:22;97055.00;;;4.68;80.36
21096;BME280;10706;49.036;12.112;2024-01-07T04:59:50;97053.84;;;4.58;79.63
21096;BME280;10706;49.036;12.112;2024-01-07T05:02:16;97058.38;;;4.51;80.68
21096;BME280;10706;49.036;12.112;2024-01-07T05:04:42;97059.75;;;4.28;81.34
21096;BME280;10706;49.036;12.112;2024-01-07T05:07:08;97058.63;;;4.42;80.42
21096;BME280;10706;49.036;12.112;2024-01-07T05:09:34;97068.59;;;4.40;80.45
21096;BME280;10706;49.036;12.112;2024-01-07T05:12:00;97063.66;;;4.12;82.82
21096;BME280;10706;49.036;12.112;2024-01-07T05:14:27;97065.38;;;4.32;81.55
21096;BME280;10706;49.036;12.112;2024-01-07T05:16:53;97065.72;;;4.10;82.24
21096;BME280;10706;49.036;12.112;2024-01-07T05:19:22;97073.94;;;4.34;80.61
21096;BME280;10706;49.036;12.112;2024-01-07T05:21:48;97073.94;;;4.34;80.06
21096;BME280;10706;49.036;12.112;2024-01-07T05:24:14;97071.13;;;4.22;80.33
21096;BME280;10706;49.036;12.112;2024-01-07T05:26:42;97071.63;;;4.05;80.88
21096;BME280;10706;49.036;12.112;2024-01-07T05:29:09;97071.97;;;4.16;81.29
21096;BME280;10706;49.036;12.112;2024-01-07T05:31:34;97072.97;;;4.21;81.57
21096;BME280;10706;49.036;12.112;2024-01-07T05:34:00;97081.09;;;4.26;79.44
21096;BME280;10706;49.036;12.112;2024-01-07T05:36:26;97081.19;;;4.45;79.77
21096;BME280;10706;49.036;12.112;2024-01-07T05:38:52;97080.88;;;4.28;79.70
21096;BME280;10706;49.036;12.112;2024-01-07T05:41:18;97084.53;;;4.20;79.29
21096;BME280;10706;49.036;12.112;2024-01-07T05:43:44;97085.66;;;4.44;78.57
21096;BME280;10706;49.036;12.112;2024-01-07T05:46:10;97089.47;;;4.10;79.69
21096;BME280;10706;49.036;12.112;2024-01-07T05:48:49;97098.75;;;4.26;78.67
21096;BME280;10706;49.036;12.112;2024-01-07T05:51:16;97094.69;;;4.30;78.81
21096;BME280;10706;49.036;12.112;2024-01-07T05:53:44;97092.53;;;4.14;79.28
21096;BME280;10706;49.036;12.112;2024-01-07T05:56:10;97090.53;;;4.41;78.05
21096;BME280;10706;49.036;12.112;2024-01-07T05:58:35;97096.06;;;3.94;81.15
21096;BME280;10706;49.036;12.112;2024-01-07T06:01:01;97103.38;;;4.37;79.09
21096;BME280;10706;49.036;12.112;2024-01-07T06:03:27;97094.56;;;4.12;81.37
21096;BME280;10706;49.036;12.112;2024-01-07T06:05:53;97098.66;;;4.01;81.04
21096;BME280;10706;49.036;12.112;2024-01-07T06:08:19;97094.09;;;4.28;79.69
21096;BME280;10706;49.036;12.112;2024-01-07T06:10:44;97099.44;;;4.53;79.85
21096;BME280;10706;49.036;12.112;2024-01-07T06:13:10;97102.19;;;4.33;80.10
21096;BME280;10706;49.036;12.112;2024-01-07T06:15:36;97103.59;;;3.91;82.27
21096;BME280;10706;49.036;12.112;2024-01-07T06:18:02;97104.47;;;4.16;80.43
21096;BME280;10706;49.036;12.112;2024-01-07T06:20:28;97101.00;;;3.64;81.79
21096;BME280;10706;49.036;12.112;2024-01-07T06:22:54;97103.09;;;4.07;81.13
21096;BME280;10706;49.036;12.112;2024-01-07T06:25:20;97106.97;;;4.11;80.69
21096;BME280;10706;49.036;12.112;2024-01-07T06:27:46;97110.41;;;4.05;80.66
21096;BME280;10706;49.036;12.112;2024-01-07T06:30:12;97113.47;;;4.08;81.00
21096;BME280;10706;49.036;12.112;2024-01-07T06:32:39;97113.44;;;4.15;80.58
21096;BME280;10706;49.036;12.112;2024-01-07T06:35:05;97112.53;;;4.35;78.96
21096;BME280;10706;49.036;12.112;2024-01-07T06:37:31;97117.41;;;4.38;78.39
21096;BME280;10706;49.036;12.112;2024-01-07T06:39:57;97108.19;;;4.08;79.42
21096;BME280;10706;49.036;12.112;2024-01-07T06:42:24;97117.69;;;4.16;80.18
21096;BME280;10706;49.036;12.112;2024-01-07T06:44:50;97116.75;;;4.49;79.13
21096;BME280;10706;49.036;12.112;2024-01-07T06:47:16;97120.22;;;3.91;80.43
21096;BME280;10706;49.036;12.112;2024-01-07T06:49:41;97117.94;;;4.53;78.64
21096;BME280;10706;49.036;12.112;2024-01-07T06:52:07;97126.59;;;4.28;78.51
21096;BME280;10706;49.036;12.112;2024-01-07T06:54:33;97126.34;;;4.37;77.61
21096;BME280;10706;49.036;12.112;2024-01-07T06:56:59;97132.16;;;4.52;77.25
21096;BME280;10706;49.036;12.112;2024-01-07T06:59:25;97139.69;;;4.55;75.91
21096;BME280;10706;49.036;12.112;2024-01-07T07:01:51;97125.13;;;4.78;75.38
21096;BME280;10706;49.036;12.112;2024-01-07T07:04:16;97132.66;;;4.74;75.72
21096;BME280;10706;49.036;12.112;2024-01-07T07:06:42;97142.16;;;4.82;75.11
21096;BME280;10706;49.036;12.112;2024-01-07T07:09:08;97136.75;;;4.70;74.84
21096;BME280;10706;49.036;12.112;2024-01-07T07:11:33;97133.94;;;4.97;74.24
21096;BME280;10706;49.036;12.112;2024-01-07T07:13:59;97139.28;;;4.90;74.83
21096;BME280;10706;49.036;12.112;2024-01-07T07:16:26;97139.59;;;4.68;75.46
21096;BME280;10706;49.036;12.112;2024-01-07T07:18:51;97142.78;;;4.84;74.71
21096;BME280;10706;49.036;12.112;2024-01-07T07:21:19;97142.66;;;4.72;75.50
21096;BME280;10706;49.036;12.112;2024-01-07T07:23:44;97148.47;;;4.49;78.11
21096;BME280;10706;49.036;12.112;2024-01-07T07:26:10;97151.94;;;4.81;76.33
21096;BME280;10706;49.036;12.112;2024-01-07T07:28:36;97160.69;;;4.82;76.03
21096;BME280;10706;49.036;12.112;2024-01-07T07:31:03;97167.47;;;5.03;75.19
21096;BME280;10706;49.036;12.112;2024-01-07T07:33:28;97160.50;;;5.09;74.79
21096;BME280;10706;49.036;12.112;2024-01-07T07:35:54;97155.00;;;5.10;75.17
21096;BME280;10706;49.036;12.112;2024-01-07T07:38:20;97167.31;;;4.98;75.14
21096;BME280;10706;49.036;12.112;2024-01-07T07:40:46;97168.03;;;4.80;75.53
21096;BME280;10706;49.036;12.112;2024-01-07T07:43:21;97168.22;;;4.78;75.98
21096;BME280;10706;49.036;12.112;2024-01-07T07:45:47;97173.31;;;4.41;77.17
21096;BME280;10706;49.036;12.112;2024-01-07T07:48:13;97168.38;;;4.00;78.76
21096;BME280;10706;49.036;12.112;2024-01-07T07:50:39;97174.00;;;4.17;78.31
21096;BME280;10706;49.036;12.112;2024-01-07T07:53:06;97173.66;;;3.86;78.88
21096;BME280;10706;49.036;12.112;2024-01-07T07:55:32;97186.19;;;4.18;79.29
21096;BME280;10706;49.036;12.112;2024-01-07T07:57:58;97193.31;;;4.11;76.05
21096;BME280;10706;49.036;12.112;2024-01-07T08:00:24;97185.59;;;4.16;77.09
21096;BME280;10706;49.036;12.112;2024-01-07T08:02:50;97191.41;;;4.38;74.77
21096;BME280;10706;49.036;12.112;2024-01-07T08:05:16;97199.22;;;3.99;75.72
21096;BME280;10706;49.036;12.112;2024-01-07T08:07:42;97202.06;;;4.11;76.93
21096;BME280;10706;49.036;12.112;2024-01-07T08:10:08;97204.88;;;4.16;76.08
21096;BME280;10706;49.036;12.112;2024-01-07T08:12:35;97210.91;;;4.43;74.99
21096;BME280;10706;49.036;12.112;2024-01-07T08:15:01;97214.91;;;4.59;75.02
21096;BME280;10706;49.036;12.112;2024-01-07T08:17:28;97214.38;;;4.37;75.63
21096;BME280;10706;49.036;12.112;2024-01-07T08:19:54;97225.91;;;4.56;73.69
21096;BME280;10706;49.036;12.112;2024-01-07T08:22:19;97240.47;;;4.14;75.08
21096;BME280;10706;49.036;12.112;2024-01-07T08:24:45;97231.09;;;4.18;74.40
21096;BME280;10706;49.036;12.112;2024-01-07T08:27:11;97235.78;;;4.09;74.29
21096;BME280;10706;49.036;12.112;2024-01-07T08:29:37;97232.97;;;3.97;75.35
21096;BME280;10706;49.036;12.112;2024-01-07T08:32:03;97237.81;;;4.07;75.53
21096;BME280;10706;49.036;12.112;2024-01-07T08:34:28;97238.25;;;4.04;75.34
21096;BME280;10706;49.036;12.112;2024-01-07T08:36:54;97239.06;;;3.91;74.89
21096;BME280;10706;49.036;12.112;2024-01-07T08:39:20;97246.13;;;4.24;73.97
21096;BME280;10706;49.036;12.112;2024-01-07T08:41:46;97247.59;;;3.60;74.87
21096;BME280;10706;49.036;12.112;2024-01-07T08:44:12;97258.56;;;3.43;74.64
21096;BME280;10706;49.036;12.112;2024-01-07T08:46:38;97261.13;;;3.03;77.28
21096;BME280;10706;49.036;12.112;2024-01-07T08:49:04;97255.31;;;3.41;77.67
21096;BME280;10706;49.036;12.112;2024-01-07T08:51:29;97259.16;;;3.32;77.49
21096;BME280;10706;49.036;12.112;2024-01-07T08:53:57;97257.75;;;3.36;77.38
21096;BME280;10706;49.036;12.112;2024-01-07T08:56:23;97259.97;;;3.39;76.91
21096;BME280;10706;49.036;12.112;2024-01-07T08:58:49;97271.38;;;3.66;75.35
21096;BME280;10706;49.036;12.112;2024-01-07T09:01:15;97268.34;;;3.63;76.32
21096;BME280;10706;49.036;12.112;2024-01-07T09:03:41;97278.69;;;3.58;76.74
21096;BME280;10706;49.036;12.112;2024-01-07T09:06:07;97280.72;;;3.62;76.16
21096;BME280;10706;49.036;12.112;2024-01-07T09:08:34;97283.38;;;3.62;76.67
21096;BME280;10706;49.036;12.112;2024-01-07T09:11:03;97287.59;;;3.37;78.03
21096;BME280;10706;49.036;12.112;2024-01-07T09:13:29;97294.31;;;3.59;77.12
21096;BME280;10706;49.036;12.112;2024-01-07T09:15:55;97289.84;;;3.66;75.93
21096;BME280;10706;49.036;12.112;2024-01-07T09:18:21;97302.44;;;3.64;75.91
21096;BME280;10706;49.036;12.112;2024-01-07T09:20:47;97303.47;;;3.77;74.22
21096;BME280;10706;49.036;12.112;2024-01-07T09:23:13;97316.56;;;3.30;76.28
21096;BME280;10706;49.036;12.112;2024-01-07T09:25:41;97304.47;;;3.82;75.28
21096;BME280;10706;49.036;12.112;2024-01-07T09:28:07;97304.69;;;3.61;74.59
21096;BME280;10706;49.036;12.112;2024-01-07T09:30:33;97309.47;;;3.24;76.63
21096;BME280;10706;49.036;12.112;2024-01-07T09:32:58;97310.47;;;3.23;75.33
21096;BME280;10706;49.036;12.112;2024-01-07T09:35:24;97310.69;;;3.28;77.23
21096;BME280;10706;49.036;12.112;2024-01-07T09:37:51;97317.28;;;3.59;74.60
21096;BME280;10706;49.036;12.112;2024-01-07T09:40:19;97318.28;;;2.89;77.89
21096;BME280;10706;49.036;12.112;2024-01-07T09:42:46;97313.19;;;3.56;76.78
21096;BME280;10706;49.036;12.112;2024-01-07T09:45:13;97315.81;;;3.49;76.03
21096;BME280;10706;49.036;12.112;2024-01-07T09:47:44;97322.31;;;3.60;75.22
21096;BME280;10706;49.036;12.112;2024-01-07T09:50:11;97317.63;;;3.42;74.38
21096;BME280;10706;49.036;12.112;2024-01-07T09:52:43;97313.91;;;3.17;75.22
21096;BME280;10706;49.036;12.112;2024-01-07T09:55:14;97318.59;;;3.21;77.10
21096;BME280;10706;49.036;12.112;2024-01-07T09:57:44;97319.81;;;3.32;76.02
21096;BME280;10706;49.036;12.112;2024-01-07T10:00:12;97319.47;;;3.48;74.86
21096;BME280;10706;49.036;12.112;2024-01-07T10:02:39;97316.25;;;2.91;75.32
21096;BME280;10706;49.036;12.112;2024-01-07T10:05:07;97329.81;;;3.37;76.18
21096;BME280;10706;49.036;12.112;2024-01-07T10:07:33;97331.56;;;3.23;76.76
21096;BME280;10706;49.036;12.112;2024-01-07T10:10:16;97327.09;;;3.10;76.13
21096;BME280;10706;49.036;12.112;2024-01-07T10:12:46;97325.28;;;3.24;76.43
21096;BME280;10706;49.036;12.112;2024-01-07T10:15:13;97335.88;;;3.30;74.37
21096;BME280;10706;49.036;12.112;2024-01-07T10:17:41;97332.81;;;3.27;74.43
21096;BME280;10706;49.036;12.112;2024-01-07T10:20:11;97337.06;;;3.28;74.07
21096;BME280;10706;49.036;12.112;2024-01-07T10:22:37;97335.19;;;3.08;74.43
21096;BME280;10706;49.036;12.112;2024-01-07T10:25:04;97341.66;;;2.99;74.82
21096;BME280;10706;49.036;12.112;2024-01-07T10:27:33;97343.53;;;2.36;76.32
21096;BME280;10706;49.036;12.112;2024-01-07T10:29:59;97343.34;;;3.14;75.66
21096;BME280;10706;49.036;12.112;2024-01-07T10:32:25;97348.84;;;3.32;75.37
21096;BME280;10706;49.036;12.112;2024-01-07T10:34:57;97351.88;;;3.16;74.40
21096;BME280;10706;49.036;12.112;2024-01-07T10:37:26;97347.31;;;3.58;73.07
21096;BME280;10706;49.036;12.112;2024-01-07T10:39:59;97351.19;;;3.88;73.18
21096;BME280;10706;49.036;12.112;2024-01-07T10:42:33;97346.28;;;3.45;73.22
21096;BME280;10706;49.036;12.112;2024-01-07T10:45:01;97353.94;;;3.27;73.05
21096;BME280;10706;49.036;12.112;2024-01-07T10:47:30;97350.31;;;3.35;72.81
21096;BME280;10706;49.036;12.112;2024-01-07T10:49:59;97347.09;;;3.53;71.85
21096;BME280;10706;49.036;12.112;2024-01-07T10:52:28;97355.16;;;3.31;73.51
21096;BME280;10706;49.036;12.112;2024-01-07T10:54:59;97352.31;;;3.39;73.55
21096;BME280;10706;49.036;12.112;2024-01-07T10:57:43;97360.09;;;3.67;72.67
21096;BME280;10706;49.036;12.112;2024-01-07T11:00:12;97363.22;;;3.16;75.08
21096;BME280;10706;49.036;12.112;2024-01-07T11:03:16;97358.50;;;3.73;72.59
21096;BME280;10706;49.036;12.112;2024-01-07T11:06:13;97359.09;;;3.55;73.38
21096;BME280;10706;49.036;12.112;2024-01-07T11:08:52;97358.44;;;3.40;73.13
21096;BME280;10706;49.036;12.112;2024-01-07T11:11:26;97363.72;;;2.57;75.75
21096;BME280;10706;49.036;12.112;2024-01-07T11:13:55;97364.03;;;3.17;74.11
21096;BME280;10706;49.036;12.112;2024-01-07T11:16:43;97365.25;;;3.21;74.59
21096;BME280;10706;49.036;12.112;2024-01-07T11:19:16;97367.69;;;3.16;76.62
21096;BME280;10706;49.036;12.112;2024-01-07T11:21:51;97366.38;;;3.53;74.62
21096;BME280;10706;49.036;12.112;2024-01-07T11:24:39;97366.41;;;3.66;74.88
21096;BME280;10706;49.036;12.112;2024-01-07T11:27:11;97376.50;;;3.36;75.96
21096;BME280;10706;49.036;12.112;2024-01-07T11:29:37;97372.25;;;3.42;74.14
21096;BME280;10706;49.036;12.112;2024-01-07T11:32:06;97376.66;;;3.28;74.88
21096;BME280;10706;49.036;12.112;2024-01-07T11:34:41;97383.28;;;3.10;75.33
21096;BME280;10706;49.036;12.112;2024-01-07T11:37:20;97377.47;;;2.87;76.42
21096;BME280;10706;49.036;12.112;2024-01-07T11:40:02;97377.47;;;2.80;76.33
21096;BME280;10706;49.036;12.112;2024-01-07T11:42:50;97381.88;;;2.73;76.53
21096;BME280;10706;49.036;12.112;2024-01-07T11:45:18;97386.97;;;2.46;79.18
21096;BME280;10706;49.036;12.112;2024-01-07T11:47:45;97383.91;;;3.13;76.89
21096;BME280;10706;49.036;12.112;2024-01-07T11:50:14;97389.47;;;3.31;76.72
21096;BME280;10706;49.036;12.112;2024-01-07T11:52:42;97387.63;;;3.25;75.80
21096;BME280;10706;49.036;12.112;2024-01-07T11:55:09;97391.88;;;3.26;76.03
21096;BME280;10706;49.036;12.112;2024-01-07T11:57:35;97390.28;;;2.90;74.97
21096;BME280;10706;49.036;12.112;2024-01-07T12:00:53;97388.75;;;2.39;76.48
21096;BME280;10706;49.036;12.112;2024-01-07T12:03:03;97393.16;;;2.95;74.61
21096;BME280;10706;49.036;12.112;2024-01-07T12:05:30;97401.69;;;2.97;74.29
21096;BME280;10706;49.036;12.112;2024-01-07T12:11:12;97397.41;;;2.61;76.67
21096;BME280;10706;49.036;12.112;2024-01-07T12:13:54;97399.66;;;2.99;74.33
21096;BME280;10706;49.036;12.112;2024-01-07T12:16:26;97400.59;;;3.26;72.90
21096;BME280;10706;49.036;12.112;2024-01-07T12:18:52;97400.59;;;3.26;74.81
21096;BME280;10706;49.036;12.112;2024-01-07T12:21:24;97398.31;;;2.75;76.31
21096;BME280;10706;49.036;12.112;2024-01-07T12:23:53;97393.63;;;2.70;75.61
21096;BME280;10706;49.036;12.112;2024-01-07T12:26:20;97398.34;;;2.82;77.28
21096;BME280;10706;49.036;12.112;2024-01-07T12:28:57;97394.59;;;3.46;74.18
21096;BME280;10706;49.036;12.112;2024-01-07T12:31:26;97400.81;;;3.31;73.35
21096;BME280;10706;49.036;12.112;2024-01-07T12:33:53;97402.97;;;2.73;76.01
21096;BME280;10706;49.036;12.112;2024-01-07T12:36:23;97403.41;;;3.18;73.75
21096;BME280;10706;49.036;12.112;2024-01-07T12:38:49;97403.66;;;2.88;75.50
21096;BME280;10706;49.036;12.112;2024-01-07T12:41:17;97406.94;;;2.62;74.50
21096;BME280;10706;49.036;12.112;2024-01-07T12:43:44;97413.25;;;2.40;75.26
21096;BME280;10706;49.036;12.112;2024-01-07T12:46:10;97421.97;;;2.40;76.27
21096;BME280;10706;49.036;12.112;2024-01-07T12:48:39;97422.53;;;2.07;76.91
21096;BME280;10706;49.036;12.112;2024-01-07T12:51:07;97423.53;;;2.56;76.75
21096;BME280;10706;49.036;12.112;2024-01-07T12:53:34;97426.84;;;2.37;76.61
21096;BME280;10706;49.036;12.112;2024-01-07T12:56:03;97434.41;;;2.75;75.54
21096;BME280;10706;49.036;12.112;2024-01-07T12:58:29;97432.41;;;2.48;73.83
21096;BME280;10706;49.036;12.112;2024-01-07T13:00:55;97429.34;;;2.02;76.28
21096;BME280;10706;49.036;12.112;2024-01-07T13:03:22;97432.28;;;2.35;74.42
21096;BME280;10706;49.036;12.112;2024-01-07T13:05:48;97431.34;;;2.43;76.31